createdAt,value
2017-11-22T00:02:02.917Z,3.83
2017-11-22T00:04:28.704Z,3.86
2017-11-22T00:06:55.500Z,3.85
2017-11-22T00:09:21.288Z,3.78
2017-11-22T00:11:49.779Z,3.69
2017-11-22T00:14:15.549Z,3.72
2017-11-22T00:16:42.023Z,3.53
2017-11-22T00:19:09.405Z,3.29
2017-11-22T00:21:35.192Z,3.30
2017-11-22T00:24:01.848Z,3.21
2017-11-22T00:26:27.623Z,3.21
2017-11-22T00:28:57.063Z,3.22
2017-11-22T00:31:22.823Z,3.42
2017-11-22T00:33:52.600Z,3.37
2017-11-22T00:36:18.411Z,3.41
2017-11-22T00:38:46.015Z,3.46
2017-11-22T00:41:11.780Z,3.58
2017-11-22T00:43:40.388Z,3.67
2017-11-22T00:46:06.176Z,3.73
2017-11-22T00:48:32.651Z,3.79
2017-11-22T00:50:59.993Z,3.83
2017-11-22T00:53:25.847Z,3.86
2017-11-22T00:55:52.945Z,3.75
2017-11-22T00:58:18.736Z,3.84
2017-11-22T01:00:47.770Z,3.81
2017-11-22T01:03:13.544Z,3.87
2017-11-22T01:05:43.278Z,4.01
2017-11-22T01:08:09.100Z,4.03
2017-11-22T01:10:37.908Z,4.08
2017-11-22T01:13:03.700Z,4.26
2017-11-22T01:15:31.053Z,4.32
2017-11-22T01:17:56.827Z,4.28
2017-11-22T01:20:26.102Z,4.27
2017-11-22T01:22:51.872Z,4.29
2017-11-22T01:25:20.387Z,4.19
2017-11-22T01:27:46.172Z,4.17
2017-11-22T01:30:12.644Z,4.04
2017-11-22T01:32:38.444Z,4.04
2017-11-22T01:35:04.237Z,3.95
2017-11-22T01:37:34.118Z,3.94
2017-11-22T01:39:59.891Z,3.87
2017-11-22T01:42:27.213Z,3.82
2017-11-22T01:44:53.019Z,3.84
2017-11-22T01:47:22.480Z,3.73
2017-11-22T01:49:48.280Z,3.68
2017-11-22T01:52:17.875Z,3.74
2017-11-22T01:54:43.668Z,3.74
2017-11-22T01:57:11.080Z,3.84
2017-11-22T01:59:36.865Z,3.86
2017-11-22T02:02:06.214Z,3.91
2017-11-22T02:04:32.028Z,3.94
2017-11-22T02:07:00.884Z,3.99
2017-11-22T02:09:26.693Z,4.02
2017-11-22T02:11:55.991Z,4.04
2017-11-22T02:14:21.764Z,4.11
2017-11-22T02:16:51.311Z,4.12
2017-11-22T02:19:17.107Z,4.23
2017-11-22T02:21:44.826Z,4.31
2017-11-22T02:24:10.606Z,4.37
2017-11-22T02:26:39.988Z,4.51
2017-11-22T02:29:05.783Z,4.30
2017-11-22T02:31:31.587Z,4.18
2017-11-22T02:33:57.372Z,4.04
2017-11-22T02:36:23.155Z,4.02
2017-11-22T02:38:51.983Z,3.88
2017-11-22T02:41:17.781Z,3.80
2017-11-22T02:43:47.253Z,3.86
2017-11-22T02:46:13.028Z,3.91
2017-11-22T02:48:42.192Z,3.98
2017-11-22T02:51:08.005Z,4.02
2017-11-22T02:53:35.253Z,4.15
2017-11-22T02:56:01.065Z,4.18
2017-11-22T02:58:29.995Z,4.25
2017-11-22T03:00:55.802Z,4.24
2017-11-22T03:03:26.030Z,4.25
2017-11-22T03:05:51.847Z,4.18
2017-11-22T03:08:17.605Z,4.02
2017-11-22T03:10:43.384Z,3.78
2017-11-22T03:13:09.180Z,3.80
2017-11-22T03:15:36.571Z,3.70
2017-11-22T03:18:02.373Z,3.91
2017-11-22T03:20:31.726Z,3.94
2017-11-22T03:22:57.537Z,4.00
2017-11-22T03:25:25.764Z,4.01
2017-11-22T03:27:51.580Z,3.96
2017-11-22T03:30:22.468Z,3.95
2017-11-22T03:32:48.292Z,4.00
2017-11-22T03:35:15.240Z,3.98
2017-11-22T03:37:42.751Z,3.95
2017-11-22T03:40:11.741Z,3.90
2017-11-22T03:42:37.592Z,3.90
2017-11-22T03:45:03.420Z,3.96
2017-11-22T03:47:29.237Z,3.93
2017-11-22T03:50:01.175Z,3.89
2017-11-22T03:52:33.001Z,3.91
2017-11-22T03:54:58.812Z,3.98
2017-11-22T03:57:24.655Z,4.05
2017-11-22T04:02:46.878Z,4.18
2017-11-22T04:05:12.772Z,4.20
2017-11-22T04:07:38.540Z,4.21
2017-11-22T04:10:04.309Z,4.27
2017-11-22T04:12:30.056Z,4.35
2017-11-22T04:14:55.828Z,4.50
2017-11-22T04:17:21.604Z,4.60
2017-11-22T04:19:50.284Z,4.62
2017-11-22T04:22:16.036Z,4.69
2017-11-22T04:24:41.820Z,4.70
2017-11-22T04:27:07.587Z,4.73
2017-11-22T04:29:33.359Z,4.77
2017-11-22T04:31:59.100Z,4.85
2017-11-22T04:34:24.845Z,4.89
2017-11-22T04:36:50.621Z,4.92
2017-11-22T04:39:16.384Z,5.00
2017-11-22T04:41:42.192Z,5.03
2017-11-22T04:44:07.988Z,5.15
2017-11-22T04:46:33.775Z,5.18
2017-11-22T04:48:59.548Z,5.19
2017-11-22T04:51:25.324Z,5.21
2017-11-22T04:53:51.100Z,5.18
2017-11-22T04:56:16.850Z,5.24
2017-11-22T04:58:42.614Z,5.32
2017-11-22T05:01:08.404Z,5.39
2017-11-22T05:03:34.160Z,5.46
2017-11-22T05:05:59.944Z,5.53
2017-11-22T05:08:25.713Z,5.56
2017-11-22T05:10:51.475Z,5.56
2017-11-22T05:13:17.296Z,5.54
2017-11-22T05:15:43.109Z,5.18
2017-11-22T05:18:08.890Z,5.01
2017-11-22T05:20:38.328Z,4.93
2017-11-22T05:23:04.366Z,4.92
2017-11-22T05:25:31.780Z,4.85
2017-11-22T05:27:57.540Z,4.82
2017-11-22T05:30:25.796Z,4.89
2017-11-22T05:32:51.548Z,5.01
2017-11-22T05:35:17.300Z,5.13
2017-11-22T05:37:44.321Z,5.15
2017-11-22T05:40:10.092Z,5.09
2017-11-22T05:42:37.597Z,5.05
2017-11-22T05:45:03.397Z,4.98
2017-11-22T05:47:32.689Z,4.89
2017-11-22T05:49:58.481Z,4.78
2017-11-22T05:52:28.284Z,4.67
2017-11-22T05:54:54.065Z,4.64
2017-11-22T05:57:21.664Z,4.77
2017-11-22T05:59:47.448Z,5.11
2017-11-22T06:04:44.115Z,5.22
2017-11-22T06:07:11.576Z,5.08
2017-11-22T06:09:37.392Z,4.82
2017-11-22T06:12:03.148Z,4.86
2017-11-22T06:14:28.900Z,4.89
2017-11-22T06:16:54.687Z,4.92
2017-11-22T06:19:24.369Z,4.95
2017-11-22T06:21:50.182Z,4.99
2017-11-22T06:24:17.792Z,5.00
2017-11-22T06:26:43.544Z,5.02
2017-11-22T06:29:12.855Z,5.04
2017-11-22T06:31:38.633Z,5.03
2017-11-22T06:34:07.638Z,5.01
2017-11-22T06:36:33.414Z,4.91
2017-11-22T06:39:05.637Z,4.94
2017-11-22T06:41:31.388Z,4.96
2017-11-22T06:43:57.161Z,4.93
2017-11-22T06:46:23.085Z,4.94
2017-11-22T06:48:48.839Z,5.03
2017-11-22T06:51:14.626Z,5.09
2017-11-22T06:53:40.394Z,5.14
2017-11-22T06:56:08.132Z,5.22
2017-11-22T06:58:33.945Z,5.60
2017-11-22T07:01:03.699Z,5.89
2017-11-22T07:03:32.464Z,6.12
2017-11-22T07:05:58.232Z,6.34
2017-11-22T07:08:24.000Z,6.53
2017-11-22T07:10:52.813Z,6.68
2017-11-22T07:13:19.315Z,6.80
2017-11-22T07:15:56.327Z,6.88
2017-11-22T07:18:22.099Z,6.99
2017-11-22T07:20:47.860Z,7.27
2017-11-22T07:23:13.639Z,7.79
2017-11-22T07:25:39.403Z,8.38
2017-11-22T07:28:05.140Z,8.72
2017-11-22T07:30:30.888Z,9.02
2017-11-22T07:32:56.640Z,9.41
2017-11-22T07:35:28.549Z,9.94
2017-11-22T07:38:00.390Z,10.61
2017-11-22T07:40:29.075Z,11.40
2017-11-22T07:42:54.856Z,12.38
2017-11-22T07:45:20.613Z,13.60
2017-11-22T07:47:52.482Z,14.59
2017-11-22T07:50:18.307Z,15.52
2017-11-22T07:52:44.068Z,15.54
2017-11-22T07:55:09.844Z,15.35
2017-11-22T07:57:37.576Z,15.02
2017-11-22T08:00:03.390Z,14.91
2017-11-22T08:02:29.220Z,15.34
2017-11-22T08:04:55.004Z,16.28
2017-11-22T08:07:20.744Z,17.04
2017-11-22T08:09:46.484Z,17.82
2017-11-22T08:12:12.244Z,19.10
2017-11-22T08:14:37.996Z,20.08
2017-11-22T08:17:03.756Z,20.17
2017-11-22T08:19:29.533Z,20.36
2017-11-22T08:21:55.289Z,20.48
2017-11-22T08:24:22.800Z,20.78
2017-11-22T08:26:48.547Z,21.80
2017-11-22T08:31:45.260Z,22.60
2017-11-22T08:34:12.808Z,23.16
2017-11-22T08:36:38.571Z,23.67
2017-11-22T08:39:04.320Z,23.92
2017-11-22T08:41:36.145Z,22.59
2017-11-22T08:44:01.990Z,23.21
2017-11-22T08:46:27.752Z,22.90
2017-11-22T08:48:53.528Z,23.00
2017-11-22T08:51:19.292Z,23.05
2017-11-22T08:53:45.059Z,23.06
2017-11-22T08:56:19.663Z,22.87
2017-11-22T08:58:45.423Z,22.96
2017-11-22T09:01:11.176Z,23.34
2017-11-22T09:03:43.084Z,23.67
2017-11-22T09:06:15.072Z,24.42
2017-11-22T09:08:40.818Z,24.76
2017-11-22T09:11:06.609Z,25.06
2017-11-22T09:13:32.388Z,24.49
2017-11-22T09:15:58.163Z,24.86
2017-11-22T09:18:29.880Z,25.47
2017-11-22T09:20:55.658Z,25.85
2017-11-22T09:23:21.420Z,25.15
2017-11-22T09:25:47.181Z,25.31
2017-11-22T09:28:12.948Z,25.01
2017-11-22T09:30:44.968Z,25.27
2017-11-22T09:33:10.752Z,25.27
2017-11-22T09:35:36.503Z,24.97
2017-11-22T09:38:02.244Z,24.66
2017-11-22T09:40:28.049Z,24.81
2017-11-22T09:42:53.801Z,24.58
2017-11-22T09:45:19.566Z,24.68
2017-11-22T09:47:45.344Z,24.60
2017-11-22T09:50:11.085Z,23.62
2017-11-22T09:52:37.271Z,23.14
2017-11-22T09:55:03.060Z,23.20
2017-11-22T09:57:28.839Z,23.26
2017-11-22T09:59:54.588Z,23.21
2017-11-22T10:02:20.393Z,23.07
2017-11-22T10:07:16.976Z,20.50
2017-11-22T10:09:44.259Z,19.78
2017-11-22T10:12:10.023Z,20.26
2017-11-22T10:14:38.792Z,20.90
2017-11-22T10:17:10.671Z,20.86
2017-11-22T10:19:42.664Z,21.08
2017-11-22T10:22:08.472Z,21.05
2017-11-22T10:24:34.378Z,20.84
2017-11-22T10:27:06.275Z,20.11
2017-11-22T10:29:39.058Z,20.56
2017-11-22T10:32:04.871Z,20.37
2017-11-22T10:34:30.644Z,21.45
2017-11-22T10:36:56.416Z,22.26
2017-11-22T10:39:22.224Z,22.38
2017-11-22T10:41:48.000Z,22.04
2017-11-22T10:44:13.772Z,21.80
2017-11-22T10:46:39.552Z,21.81
2017-11-22T10:49:05.321Z,21.70
2017-11-22T10:51:31.103Z,22.16
2017-11-22T10:53:56.876Z,22.65
2017-11-22T10:56:22.635Z,22.81
2017-11-22T10:58:48.419Z,22.87
2017-11-22T11:01:14.184Z,22.54
2017-11-22T11:03:39.963Z,22.98
2017-11-22T11:06:05.736Z,23.60
2017-11-22T11:08:31.525Z,23.73
2017-11-22T11:10:57.292Z,23.73
2017-11-22T11:13:26.753Z,23.59
2017-11-22T11:15:52.531Z,22.49
2017-11-22T11:18:20.112Z,21.94
2017-11-22T11:20:45.884Z,21.55
2017-11-22T11:23:14.229Z,21.45
2017-11-22T11:25:40.048Z,21.72
2017-11-22T11:28:05.784Z,21.72
2017-11-22T11:30:32.185Z,21.97
2017-11-22T11:32:57.998Z,21.96
2017-11-22T11:35:40.021Z,22.07
2017-11-22T11:38:05.812Z,21.86
2017-11-22T11:40:31.597Z,21.87
2017-11-22T11:42:57.363Z,21.69
2017-11-22T11:45:23.148Z,21.83
2017-11-22T11:47:48.948Z,21.92
2017-11-22T11:50:14.701Z,20.69
2017-11-22T11:52:40.504Z,20.15
2017-11-22T11:55:06.265Z,20.12
2017-11-22T11:57:32.319Z,19.97
2017-11-22T12:00:00.021Z,19.98
2017-11-22T12:02:26.721Z,19.82
2017-11-22T12:04:57.226Z,19.87
2017-11-22T12:07:24.307Z,20.21
2017-11-22T12:09:51.177Z,20.72
2017-11-22T12:12:17.689Z,20.78
2017-11-22T12:14:44.883Z,20.50
2017-11-22T12:17:11.265Z,21.42
2017-11-22T12:19:38.049Z,21.81
2017-11-22T12:22:10.622Z,21.94
2017-11-22T12:24:36.465Z,21.93
2017-11-22T12:27:05.277Z,22.39
2017-11-22T12:29:31.043Z,21.91
2017-11-22T12:31:56.794Z,22.11
2017-11-22T12:34:22.547Z,22.25
2017-11-22T12:36:48.357Z,22.64
2017-11-22T12:39:14.120Z,23.22
2017-11-22T12:41:40.567Z,23.63
2017-11-22T12:44:10.380Z,23.69
2017-11-22T12:46:36.131Z,22.55
2017-11-22T12:49:01.884Z,22.86
2017-11-22T12:51:29.623Z,23.46
2017-11-22T12:53:55.405Z,23.49
2017-11-22T12:56:21.171Z,22.97
2017-11-22T12:58:46.981Z,22.10
2017-11-22T13:01:12.784Z,22.42
2017-11-22T13:03:41.581Z,22.98
2017-11-22T13:06:07.406Z,23.34
2017-11-22T13:08:35.954Z,23.26
2017-11-22T13:11:01.744Z,23.21
2017-11-22T13:15:58.328Z,21.39
2017-11-22T13:18:25.809Z,20.93
2017-11-22T13:20:51.581Z,21.22
2017-11-22T13:23:20.636Z,21.90
2017-11-22T13:25:46.457Z,22.38
2017-11-22T13:28:15.712Z,22.38
2017-11-22T13:30:41.500Z,22.13
2017-11-22T13:33:07.291Z,22.63
2017-11-22T13:35:33.056Z,23.00
2017-11-22T13:37:58.875Z,22.81
2017-11-22T13:40:26.561Z,23.06
2017-11-22T13:42:52.328Z,23.48
2017-11-22T13:45:21.871Z,23.69
2017-11-22T13:47:47.701Z,23.85
2017-11-22T13:50:16.784Z,23.66
2017-11-22T13:52:42.590Z,23.60
2017-11-22T13:55:12.092Z,23.62
2017-11-22T13:57:37.859Z,23.90
2017-11-22T14:00:07.267Z,23.87
2017-11-22T14:02:33.044Z,23.79
2017-11-22T14:05:02.020Z,23.89
2017-11-22T14:07:27.825Z,23.55
2017-11-22T14:09:53.594Z,23.50
2017-11-22T14:12:19.386Z,23.62
2017-11-22T14:14:45.139Z,23.48
2017-11-22T14:17:12.028Z,23.68
2017-11-22T14:19:37.813Z,23.79
2017-11-22T14:22:07.499Z,23.68
2017-11-22T14:24:33.280Z,23.56
2017-11-22T14:27:02.840Z,23.44
2017-11-22T14:29:28.632Z,23.37
2017-11-22T14:31:56.246Z,23.35
2017-11-22T14:34:22.004Z,23.25
2017-11-22T14:36:51.782Z,23.10
2017-11-22T14:39:17.607Z,23.12
2017-11-22T14:41:46.821Z,22.98
2017-11-22T14:44:12.581Z,22.80
2017-11-22T14:46:38.340Z,22.59
2017-11-22T14:49:04.147Z,22.47
2017-11-22T14:51:29.908Z,22.39
2017-11-22T14:53:57.636Z,22.12
2017-11-22T14:56:23.623Z,21.76
2017-11-22T14:58:52.804Z,21.33
2017-11-22T15:01:18.591Z,20.85
2017-11-22T15:03:48.245Z,20.47
2017-11-22T15:06:14.040Z,20.22
2017-11-22T15:08:41.865Z,19.98
2017-11-22T15:11:07.655Z,19.82
2017-11-22T15:13:36.576Z,19.62
2017-11-22T15:16:02.384Z,19.54
2017-11-22T15:18:31.514Z,19.53
2017-11-22T15:20:57.369Z,19.28
2017-11-22T15:23:23.143Z,19.14
2017-11-22T15:25:48.921Z,18.80
2017-11-22T15:28:14.689Z,18.31
2017-11-22T15:30:42.498Z,17.98
2017-11-22T15:33:08.271Z,17.53
2017-11-22T15:35:37.493Z,17.20
2017-11-22T15:38:03.262Z,16.95
2017-11-22T15:40:32.212Z,16.73
2017-11-22T15:42:57.988Z,16.50
2017-11-22T15:45:26.645Z,16.27
2017-11-22T15:47:52.456Z,16.15
2017-11-22T15:50:21.248Z,16.05
2017-11-22T15:52:47.116Z,15.82
2017-11-22T15:55:17.686Z,15.61
2017-11-22T16:00:24.344Z,15.07
2017-11-22T16:02:50.168Z,14.88
2017-11-22T16:05:16.015Z,14.75
2017-11-22T16:07:41.800Z,14.59
2017-11-22T16:10:07.560Z,14.46
2017-11-22T16:12:33.420Z,14.38
2017-11-22T16:14:59.193Z,14.27
2017-11-22T16:17:24.995Z,14.00
2017-11-22T16:37:03.511Z,12.95
2017-11-22T16:39:29.336Z,12.95
2017-11-22T16:42:18.715Z,13.03
2017-11-22T17:01:29.892Z,12.82
2017-11-22T17:21:07.870Z,11.97
2017-11-22T17:40:30.185Z,11.37
2017-11-22T17:43:28.222Z,11.16
2017-11-22T18:02:50.540Z,10.52
2017-11-22T18:08:37.323Z,10.83
2017-11-22T18:11:26.913Z,10.96
2017-11-22T18:14:23.820Z,11.08
2017-11-22T18:17:23.880Z,11.11
2017-11-22T18:30:11.055Z,10.89
2017-11-22T18:33:00.675Z,10.72
2017-11-22T18:35:58.523Z,10.72
2017-11-22T18:38:55.520Z,10.73
2017-11-22T18:51:42.604Z,10.64
2017-11-22T18:54:32.394Z,10.64
2017-11-22T18:57:29.187Z,10.67
2017-11-22T19:16:39.579Z,10.44
2017-11-22T19:35:49.972Z,10.06
2017-11-22T19:55:25.256Z,9.68
2017-11-22T19:57:51.016Z,9.77
2017-11-22T20:00:40.638Z,9.84
2017-11-22T20:19:52.605Z,9.48
2017-11-22T20:22:42.221Z,9.60
2017-11-22T20:41:54.296Z,9.61
2017-11-22T20:44:43.905Z,9.74
2017-11-22T20:47:41.640Z,9.78
2017-11-22T21:03:32.316Z,9.60
2017-11-22T21:06:25.060Z,9.65
2017-11-22T21:09:22.819Z,9.67
2017-11-22T21:12:20.411Z,9.76
2017-11-22T21:15:17.552Z,9.78
2017-11-22T21:25:07.404Z,9.40
2017-11-22T21:44:46.836Z,9.02
2017-11-22T22:04:00.479Z,9.14
2017-11-22T22:23:11.933Z,8.90
2017-11-22T22:26:09.692Z,8.87
2017-11-22T22:29:07.616Z,8.85
2017-11-22T22:31:46.760Z,9.02
2017-11-22T22:51:22.714Z,9.06
2017-11-22T23:10:36.323Z,8.88
2017-11-22T23:13:13.952Z,8.86
2017-11-22T23:32:50.449Z,9.04
2017-11-22T23:52:01.461Z,8.79
2017-11-22T23:54:59.384Z,8.83
2017-11-22T23:57:25.126Z,8.81
